sensor_id;sensor_type;location;lat;lon;timestamp;pressure;altitude;pressure_sealevel;temperature;humidity
62126;BME280;48112;53.282;6.150;2022-09-12T00:00:43;101815.72;;;17.12;74.74
62126;BME280;48112;53.282;6.150;2022-09-12T00:01:46;101811.06;;;17.12;74.55
62126;BME280;48112;53.282;6.150;2022-09-12T00:02:50;101809.44;;;17.11;74.36
62126;BME280;48112;53.282;6.150;2022-09-12T00:03:53;101808.69;;;17.11;74.39
62126;BME280;48112;53.282;6.150;2022-09-12T00:04:56;101812.53;;;17.10;74.59
62126;BME280;48112;53.282;6.150;2022-09-12T00:05:59;101808.25;;;17.09;74.32
62126;BME280;48112;53.282;6.150;2022-09-12T00:07:02;101810.53;;;17.07;74.53
62126;BME280;48112;53.282;6.150;2022-09-12T00:08:06;101808.53;;;17.04;74.97
62126;BME280;48112;53.282;6.150;2022-09-12T00:09:10;101818.25;;;17.01;74.76
62126;BME280;48112;53.282;6.150;2022-09-12T00:10:13;101813.16;;;17.00;74.98
62126;BME280;48112;53.282;6.150;2022-09-12T00:11:16;101805.66;;;16.97;75.21
62126;BME280;48112;53.282;6.150;2022-09-12T00:12:20;101805.25;;;16.95;75.34
62126;BME280;48112;53.282;6.150;2022-09-12T00:13:22;101803.66;;;16.94;75.06
62126;BME280;48112;53.282;6.150;2022-09-12T00:14:25;101808.69;;;16.92;75.20
62126;BME280;48112;53.282;6.150;2022-09-12T00:15:28;101809.09;;;16.94;75.40
62126;BME280;48112;53.282;6.150;2022-09-12T00:16:31;101800.06;;;16.90;75.33
62126;BME280;48112;53.282;6.150;2022-09-12T00:17:35;101797.72;;;16.88;75.23
62126;BME280;48112;53.282;6.150;2022-09-12T00:18:38;101798.06;;;16.87;75.17
62126;BME280;48112;53.282;6.150;2022-09-12T00:19:40;101798.44;;;16.85;75.30
62126;BME280;48112;53.282;6.150;2022-09-12T00:20:45;101791.38;;;16.84;75.56
62126;BME280;48112;53.282;6.150;2022-09-12T00:21:47;101796.06;;;16.84;75.74
62126;BME280;48112;53.282;6.150;2022-09-12T00:22:51;101801.88;;;16.82;75.55
62126;BME280;48112;53.282;6.150;2022-09-12T00:23:55;101800.28;;;16.81;75.74
62126;BME280;48112;53.282;6.150;2022-09-12T00:24:58;101794.06;;;16.81;75.94
62126;BME280;48112;53.282;6.150;2022-09-12T00:26:02;101796.78;;;16.81;75.67
62126;BME280;48112;53.282;6.150;2022-09-12T00:27:06;101791.66;;;16.79;75.64
62126;BME280;48112;53.282;6.150;2022-09-12T00:28:09;101797.47;;;16.78;75.80
62126;BME280;48112;53.282;6.150;2022-09-12T00:29:13;101801.00;;;16.78;75.54
62126;BME280;48112;53.282;6.150;2022-09-12T00:30:16;101800.19;;;16.78;75.25
62126;BME280;48112;53.282;6.150;2022-09-12T00:31:21;101788.88;;;16.76;75.37
62126;BME280;48112;53.282;6.150;2022-09-12T00:32:24;101790.00;;;16.75;75.24
62126;BME280;48112;53.282;6.150;2022-09-12T00:33:28;101786.88;;;16.73;75.51
62126;BME280;48112;53.282;6.150;2022-09-12T00:34:30;101780.19;;;16.70;75.56
62126;BME280;48112;53.282;6.150;2022-09-12T00:35:39;101787.59;;;16.70;75.68
62126;BME280;48112;53.282;6.150;2022-09-12T00:36:41;101787.59;;;16.70;75.87
62126;BME280;48112;53.282;6.150;2022-09-12T00:37:44;101783.28;;;16.69;75.75
62126;BME280;48112;53.282;6.150;2022-09-12T00:38:48;101788.72;;;16.69;75.52
62126;BME280;48112;53.282;6.150;2022-09-12T00:39:54;101788.28;;;16.67;75.77
62126;BME280;48112;53.282;6.150;2022-09-12T00:40:56;101772.63;;;16.64;76.11
62126;BME280;48112;53.282;6.150;2022-09-12T00:41:59;101778.44;;;16.62;75.55
62126;BME280;48112;53.282;6.150;2022-09-12T00:43:02;101780.78;;;16.60;75.93
62126;BME280;48112;53.282;6.150;2022-09-12T00:45:25;101787.28;;;16.56;76.27
62126;BME280;48112;53.282;6.150;2022-09-12T00:46:31;101785.69;;;16.55;76.14
62126;BME280;48112;53.282;6.150;2022-09-12T00:47:37;101785.25;;;16.53;75.94
62126;BME280;48112;53.282;6.150;2022-09-12T00:48:40;101781.69;;;16.49;76.11
62126;BME280;48112;53.282;6.150;2022-09-12T00:49:45;101776.22;;;16.49;76.75
62126;BME280;48112;53.282;6.150;2022-09-12T00:50:48;101769.91;;;16.44;76.64
62126;BME280;48112;53.282;6.150;2022-09-12T00:51:53;101773.75;;;16.43;76.66
62126;BME280;48112;53.282;6.150;2022-09-12T00:52:59;101762.78;;;16.40;76.73
62126;BME280;48112;53.282;6.150;2022-09-12T00:54:05;101764.28;;;16.37;77.20
62126;BME280;48112;53.282;6.150;2022-09-12T00:55:11;101771.31;;;16.38;76.62
62126;BME280;48112;53.282;6.150;2022-09-12T00:56:15;101775.09;;;16.34;76.62
62126;BME280;48112;53.282;6.150;2022-09-12T00:57:19;101763.31;;;16.30;77.13
62126;BME280;48112;53.282;6.150;2022-09-12T00:58:24;101756.56;;;16.24;77.48
62126;BME280;48112;53.282;6.150;2022-09-12T00:59:28;101761.53;;;16.18;78.00
62126;BME280;48112;53.282;6.150;2022-09-12T01:00:33;101752.47;;;16.14;77.70
62126;BME280;48112;53.282;6.150;2022-09-12T01:01:36;101756.63;;;16.08;78.25
62126;BME280;48112;53.282;6.150;2022-09-12T01:02:42;101758.03;;;16.02;77.99
62126;BME280;48112;53.282;6.150;2022-09-12T01:03:44;101754.88;;;16.00;78.49
62126;BME280;48112;53.282;6.150;2022-09-12T01:04:48;101749.78;;;15.99;78.72
62126;BME280;48112;53.282;6.150;2022-09-12T01:05:51;101755.22;;;15.99;78.47
62126;BME280;48112;53.282;6.150;2022-09-12T01:06:58;101754.88;;;16.00;78.49
62126;BME280;48112;53.282;6.150;2022-09-12T01:08:00;101755.66;;;16.01;78.75
62126;BME280;48112;53.282;6.150;2022-09-12T01:09:04;101753.75;;;16.01;78.74
62126;BME280;48112;53.282;6.150;2022-09-12T01:10:06;101753.41;;;16.03;78.64
62126;BME280;48112;53.282;6.150;2022-09-12T01:11:11;101751.03;;;16.01;78.94
62126;BME280;48112;53.282;6.150;2022-09-12T01:12:14;101754.03;;;15.96;78.42
62126;BME280;48112;53.282;6.150;2022-09-12T01:13:17;101765.63;;;15.93;78.21
62126;BME280;48112;53.282;6.150;2022-09-12T01:14:19;101757.72;;;15.88;79.52
62126;BME280;48112;53.282;6.150;2022-09-12T01:15:21;101752.28;;;15.88;79.42
62126;BME280;48112;53.282;6.150;2022-09-12T01:16:23;101754.56;;;15.86;79.46
62126;BME280;48112;53.282;6.150;2022-09-12T01:17:26;101747.94;;;15.87;79.73
62126;BME280;48112;53.282;6.150;2022-09-12T01:18:34;101741.72;;;15.87;79.96
62126;BME280;48112;53.282;6.150;2022-09-12T01:19:48;101750.66;;;15.87;79.68
62126;BME280;48112;53.282;6.150;2022-09-12T01:21:03;101746.81;;;15.88;79.15
62126;BME280;48112;53.282;6.150;2022-09-12T01:22:10;101751.91;;;15.90;79.42
62126;BME280;48112;53.282;6.150;2022-09-12T01:23:24;101748.84;;;15.91;78.76
62126;BME280;48112;53.282;6.150;2022-09-12T01:24:42;101751.56;;;15.91;79.20
62126;BME280;48112;53.282;6.150;2022-09-12T01:25:52;101754.63;;;15.90;79.25
62126;BME280;48112;53.282;6.150;2022-09-12T01:28:28;101754.63;;;15.90;79.05
62126;BME280;48112;53.282;6.150;2022-09-12T01:29:54;101753.84;;;15.89;79.28
62126;BME280;48112;53.282;6.150;2022-09-12T01:31:00;101752.28;;;15.88;79.40
62126;BME280;48112;53.282;6.150;2022-09-12T01:32:07;101749.53;;;15.88;78.55
62126;BME280;48112;53.282;6.150;2022-09-12T01:33:24;101747.09;;;15.83;79.17
62126;BME280;48112;53.282;6.150;2022-09-12T01:34:29;101748.25;;;15.82;78.97
62126;BME280;48112;53.282;6.150;2022-09-12T01:35:36;101748.91;;;15.79;79.40
62126;BME280;48112;53.282;6.150;2022-09-12T01:36:47;101752.00;;;15.78;79.18
62126;BME280;48112;53.282;6.150;2022-09-12T01:37:54;101754.31;;;15.76;79.18
62126;BME280;48112;53.282;6.150;2022-09-12T01:39:04;101741.06;;;15.74;79.19
62126;BME280;48112;53.282;6.150;2022-09-12T01:40:07;101742.16;;;15.73;79.50
62126;BME280;48112;53.282;6.150;2022-09-12T01:41:19;101750.34;;;15.73;79.63
62126;BME280;48112;53.282;6.150;2022-09-12T01:42:25;101742.88;;;15.70;79.12
62126;BME280;48112;53.282;6.150;2022-09-12T01:43:31;101747.88;;;15.68;79.10
62126;BME280;48112;53.282;6.150;2022-09-12T01:44:37;101748.59;;;15.65;79.46
62126;BME280;48112;53.282;6.150;2022-09-12T01:45:42;101746.56;;;15.62;79.45
62126;BME280;48112;53.282;6.150;2022-09-12T01:46:47;101749.66;;;15.61;79.31
62126;BME280;48112;53.282;6.150;2022-09-12T01:47:55;101745.72;;;15.58;79.63
62126;BME280;48112;53.282;6.150;2022-09-12T01:49:00;101751.50;;;15.57;79.59
62126;BME280;48112;53.282;6.150;2022-09-12T01:50:04;101742.09;;;15.54;80.17
62126;BME280;48112;53.282;6.150;2022-09-12T01:51:08;101743.59;;;15.52;79.58
62126;BME280;48112;53.282;6.150;2022-09-12T01:52:15;101744.41;;;15.52;80.15
62126;BME280;48112;53.282;6.150;2022-09-12T01:53:19;101738.50;;;15.50;80.13
62126;BME280;48112;53.282;6.150;2022-09-12T01:54:25;101727.97;;;15.49;80.13
62126;BME280;48112;53.282;6.150;2022-09-12T01:55:28;101735.78;;;15.50;80.04
62126;BME280;48112;53.282;6.150;2022-09-12T01:56:34;101735.34;;;15.48;80.32
62126;BME280;48112;53.282;6.150;2022-09-12T01:57:38;101731.41;;;15.46;79.81
62126;BME280;48112;53.282;6.150;2022-09-12T01:58:43;101730.16;;;15.43;80.24
62126;BME280;48112;53.282;6.150;2022-09-12T01:59:46;101731.22;;;15.39;80.05
62126;BME280;48112;53.282;6.150;2022-09-12T02:00:52;101725.66;;;15.35;80.23
62126;BME280;48112;53.282;6.150;2022-09-12T02:01:59;101721.34;;;15.34;80.73
62126;BME280;48112;53.282;6.150;2022-09-12T02:03:06;101720.19;;;15.35;80.84
62126;BME280;48112;53.282;6.150;2022-09-12T02:04:11;101720.66;;;15.37;80.89
62126;BME280;48112;53.282;6.150;2022-09-12T02:05:17;101719.84;;;15.37;80.76
62126;BME280;48112;53.282;6.150;2022-09-12T02:06:21;101726.78;;;15.34;80.88
62126;BME280;48112;53.282;6.150;2022-09-12T02:07:28;101727.16;;;15.33;80.38
62126;BME280;48112;53.282;6.150;2022-09-12T02:08:32;101709.56;;;15.30;80.77
62126;BME280;48112;53.282;6.150;2022-09-12T02:09:37;101719.34;;;15.31;80.92
62126;BME280;48112;53.282;6.150;2022-09-12T02:10:42;101718.19;;;15.32;81.05
62126;BME280;48112;53.282;6.150;2022-09-12T02:11:46;101718.97;;;15.33;80.92
62126;BME280;48112;53.282;6.150;2022-09-12T02:12:51;101715.91;;;15.34;80.83
62126;BME280;48112;53.282;6.150;2022-09-12T02:13:55;101712.75;;;15.32;80.67
62126;BME280;48112;53.282;6.150;2022-09-12T02:15:00;101713.09;;;15.31;80.91
62126;BME280;48112;53.282;6.150;2022-09-12T02:16:04;101713.44;;;15.29;80.89
62126;BME280;48112;53.282;6.150;2022-09-12T02:17:10;101714.25;;;15.30;80.83
62126;BME280;48112;53.282;6.150;2022-09-12T02:18:14;101706.84;;;15.30;80.87
62126;BME280;48112;53.282;6.150;2022-09-12T02:19:19;101711.53;;;15.30;80.69
62126;BME280;48112;53.282;6.150;2022-09-12T02:20:22;101706.84;;;15.30;80.95
62126;BME280;48112;53.282;6.150;2022-09-12T02:21:49;101703.28;;;15.26;81.35
62126;BME280;48112;53.282;6.150;2022-09-12T02:22:53;101706.00;;;15.26;81.25
62126;BME280;48112;53.282;6.150;2022-09-12T02:23:57;101710.97;;;15.24;81.11
62126;BME280;48112;53.282;6.150;2022-09-12T02:25:01;101704.78;;;15.24;80.95
62126;BME280;48112;53.282;6.150;2022-09-12T02:26:05;101709.41;;;15.23;80.71
62126;BME280;48112;53.282;6.150;2022-09-12T02:27:10;101708.63;;;15.23;80.48
62126;BME280;48112;53.282;6.150;2022-09-12T02:28:16;101714.84;;;15.23;80.78
62126;BME280;48112;53.282;6.150;2022-09-12T02:29:20;101713.97;;;15.19;81.75
62126;BME280;48112;53.282;6.150;2022-09-12T02:30:21;101710.47;;;15.19;81.38
62126;BME280;48112;53.282;6.150;2022-09-12T02:31:26;101706.84;;;15.15;81.31
62126;BME280;48112;53.282;6.150;2022-09-12T02:32:31;101701.31;;;15.11;81.29
62126;BME280;48112;53.282;6.150;2022-09-12T02:33:37;101710.63;;;15.10;81.52
62126;BME280;48112;53.282;6.150;2022-09-12T02:34:45;101706.69;;;15.08;81.62
62126;BME280;48112;53.282;6.150;2022-09-12T02:35:50;101707.81;;;15.07;81.69
62126;BME280;48112;53.282;6.150;2022-09-12T02:36:56;101699.66;;;15.07;82.00
62126;BME280;48112;53.282;6.150;2022-09-12T02:38:03;101696.50;;;15.05;81.66
62126;BME280;48112;53.282;6.150;2022-09-12T02:39:06;101699.56;;;15.03;82.05
62126;BME280;48112;53.282;6.150;2022-09-12T02:40:09;101707.75;;;15.03;81.62
62126;BME280;48112;53.282;6.150;2022-09-12T02:41:12;101704.91;;;14.99;81.50
62126;BME280;48112;53.282;6.150;2022-09-12T02:42:16;101700.59;;;14.98;81.92
62126;BME280;48112;53.282;6.150;2022-09-12T02:43:17;101704.03;;;14.95;82.23
62126;BME280;48112;53.282;6.150;2022-09-12T02:44:20;101699.38;;;14.96;82.70
62126;BME280;48112;53.282;6.150;2022-09-12T02:45:22;101700.88;;;14.93;81.91
62126;BME280;48112;53.282;6.150;2022-09-12T02:46:25;101700.09;;;14.93;82.15
62126;BME280;48112;53.282;6.150;2022-09-12T02:47:31;101701.31;;;14.95;82.20
62126;BME280;48112;53.282;6.150;2022-09-12T02:48:36;101699.03;;;14.97;82.52
62126;BME280;48112;53.282;6.150;2022-09-12T02:49:41;101702.97;;;15.00;82.39
62126;BME280;48112;53.282;6.150;2022-09-12T02:50:44;101692.53;;;15.02;82.22
62126;BME280;48112;53.282;6.150;2022-09-12T02:51:46;101697.63;;;15.03;82.12
62126;BME280;48112;53.282;6.150;2022-09-12T02:52:49;101696.84;;;15.03;82.53
62126;BME280;48112;53.282;6.150;2022-09-12T02:53:50;101700.00;;;15.05;82.25
62126;BME280;48112;53.282;6.150;2022-09-12T02:54:54;101697.28;;;15.05;82.00
62126;BME280;48112;53.282;6.150;2022-09-12T02:55:58;101702.38;;;15.07;82.24
62126;BME280;48112;53.282;6.150;2022-09-12T02:57:00;101702.72;;;15.05;81.83
62126;BME280;48112;53.282;6.150;2022-09-12T02:58:03;101695.72;;;15.04;81.81
62126;BME280;48112;53.282;6.150;2022-09-12T02:59:07;101694.03;;;14.99;82.35
62126;BME280;48112;53.282;6.150;2022-09-12T03:00:10;101699.03;;;14.97;81.74
62126;BME280;48112;53.282;6.150;2022-09-12T03:01:15;101690.06;;;14.97;82.03
62126;BME280;48112;53.282;6.150;2022-09-12T03:02:25;101691.56;;;14.94;82.08
62126;BME280;48112;53.282;6.150;2022-09-12T03:03:39;101692.72;;;14.93;82.28
62126;BME280;48112;53.282;6.150;2022-09-12T03:04:46;101690.78;;;14.94;82.05
62126;BME280;48112;53.282;6.150;2022-09-12T03:05:51;101694.66;;;14.93;82.02
62126;BME280;48112;53.282;6.150;2022-09-12T03:06:57;101693.50;;;14.94;82.33
62126;BME280;48112;53.282;6.150;2022-09-12T03:08:16;101685.34;;;14.94;82.09
62126;BME280;48112;53.282;6.150;2022-09-12T03:09:23;101686.13;;;14.94;82.03
62126;BME280;48112;53.282;6.150;2022-09-12T03:10:35;101687.28;;;14.93;81.45
62126;BME280;48112;53.282;6.150;2022-09-12T03:11:42;101681.03;;;14.93;81.56
62126;BME280;48112;53.282;6.150;2022-09-12T03:12:49;101686.13;;;14.94;82.07
62126;BME280;48112;53.282;6.150;2022-09-12T03:13:56;101687.63;;;14.92;82.09
62126;BME280;48112;53.282;6.150;2022-09-12T03:15:06;101693.06;;;14.92;81.61
62126;BME280;48112;53.282;6.150;2022-09-12T03:16:10;101689.00;;;14.86;82.43
62126;BME280;48112;53.282;6.150;2022-09-12T03:17:18;101685.41;;;14.82;82.19
62126;BME280;48112;53.282;6.150;2022-09-12T03:18:25;101687.59;;;14.76;82.20
62126;BME280;48112;53.282;6.150;2022-09-12T03:19:35;101692.50;;;14.71;81.68
62126;BME280;48112;53.282;6.150;2022-09-12T03:20:43;101692.75;;;14.66;82.32
62126;BME280;48112;53.282;6.150;2022-09-12T03:21:52;101686.09;;;14.63;82.74
62126;BME280;48112;53.282;6.150;2022-09-12T03:22:59;101684.84;;;14.61;81.90
62126;BME280;48112;53.282;6.150;2022-09-12T03:24:08;101689.81;;;14.59;82.33
62126;BME280;48112;53.282;6.150;2022-09-12T03:25:13;101683.50;;;14.55;82.61
62126;BME280;48112;53.282;6.150;2022-09-12T03:26:19;101678.41;;;14.53;83.27
62126;BME280;48112;53.282;6.150;2022-09-12T03:27:24;101682.72;;;14.54;83.34
62126;BME280;48112;53.282;6.150;2022-09-12T03:28:29;101678.88;;;14.55;83.42
62126;BME280;48112;53.282;6.150;2022-09-12T03:29:31;101682.81;;;14.58;83.67
62126;BME280;48112;53.282;6.150;2022-09-12T03:30:38;101682.81;;;14.58;83.40
62126;BME280;48112;53.282;6.150;2022-09-12T03:31:46;101680.53;;;14.60;83.70
62126;BME280;48112;53.282;6.150;2022-09-12T03:32:50;101684.84;;;14.61;83.10
62126;BME280;48112;53.282;6.150;2022-09-12T03:33:52;101686.41;;;14.62;83.23
62126;BME280;48112;53.282;6.150;2022-09-12T03:34:56;101685.97;;;14.60;82.91
62126;BME280;48112;53.282;6.150;2022-09-12T03:35:58;101687.91;;;14.59;82.53
62126;BME280;48112;53.282;6.150;2022-09-12T03:37:00;101684.38;;;14.59;82.87
62126;BME280;48112;53.282;6.150;2022-09-12T03:38:03;101685.53;;;14.58;83.02
62126;BME280;48112;53.282;6.150;2022-09-12T03:39:05;101695.59;;;14.57;83.54
62126;BME280;48112;53.282;6.150;2022-09-12T03:40:10;101682.34;;;14.56;83.28
62126;BME280;48112;53.282;6.150;2022-09-12T03:41:12;101687.38;;;14.54;83.77
62126;BME280;48112;53.282;6.150;2022-09-12T03:42:15;101683.06;;;14.53;83.45
62126;BME280;48112;53.282;6.150;2022-09-12T03:43:16;101682.59;;;14.51;83.45
62126;BME280;48112;53.282;6.150;2022-09-12T03:44:19;101685.00;;;14.52;83.58
62126;BME280;48112;53.282;6.150;2022-09-12T03:45:21;101681.47;;;14.52;83.34
62126;BME280;48112;53.282;6.150;2022-09-12T03:46:24;101679.47;;;14.49;83.28
62126;BME280;48112;53.282;6.150;2022-09-12T03:47:25;101675.16;;;14.48;82.98
62126;BME280;48112;53.282;6.150;2022-09-12T03:48:28;101676.75;;;14.49;83.16
62126;BME280;48112;53.282;6.150;2022-09-12T03:49:31;101687.16;;;14.47;82.82
62126;BME280;48112;53.282;6.150;2022-09-12T03:50:35;101679.47;;;14.49;83.00
62126;BME280;48112;53.282;6.150;2022-09-12T03:51:37;101675.50;;;14.46;83.77
62126;BME280;48112;53.282;6.150;2022-09-12T03:52:40;101673.13;;;14.45;83.16
62126;BME280;48112;53.282;6.150;2022-09-12T03:53:42;101676.19;;;14.43;83.31
62126;BME280;48112;53.282;6.150;2022-09-12T03:54:44;101679.69;;;14.44;83.27
62126;BME280;48112;53.282;6.150;2022-09-12T03:55:46;101669.88;;;14.39;83.83
62126;BME280;48112;53.282;6.150;2022-09-12T03:56:49;101670.66;;;14.40;83.29
62126;BME280;48112;53.282;6.150;2022-09-12T03:57:51;101679.94;;;14.39;83.01
62126;BME280;48112;53.282;6.150;2022-09-12T03:58:54;101668.28;;;14.38;83.80
62126;BME280;48112;53.282;6.150;2022-09-12T03:59:55;101668.63;;;14.37;83.59
62126;BME280;48112;53.282;6.150;2022-09-12T04:00:58;101675.19;;;14.36;84.22
62126;BME280;48112;53.282;6.150;2022-09-12T04:02:00;101671.69;;;14.35;84.16
62126;BME280;48112;53.282;6.150;2022-09-12T04:03:02;101668.88;;;14.32;84.19
62126;BME280;48112;53.282;6.150;2022-09-12T04:04:04;101671.50;;;14.28;84.72
62126;BME280;48112;53.282;6.150;2022-09-12T04:05:07;101677.28;;;14.27;85.19
62126;BME280;48112;53.282;6.150;2022-09-12T04:06:12;101669.00;;;14.23;84.46
62126;BME280;48112;53.282;6.150;2022-09-12T04:07:19;101672.81;;;14.22;84.67
62126;BME280;48112;53.282;6.150;2022-09-12T04:08:21;101663.56;;;14.23;84.95
62126;BME280;48112;53.282;6.150;2022-09-12T04:09:24;101652.25;;;14.21;85.43
62126;BME280;48112;53.282;6.150;2022-09-12T04:10:26;101664.03;;;14.25;84.98
62126;BME280;48112;53.282;6.150;2022-09-12T04:11:29;101668.69;;;14.25;85.31
62126;BME280;48112;53.282;6.150;2022-09-12T04:12:32;101662.44;;;14.24;85.25
62126;BME280;48112;53.282;6.150;2022-09-12T04:13:36;101661.66;;;14.24;84.96
62126;BME280;48112;53.282;6.150;2022-09-12T04:14:38;101661.88;;;14.19;85.49
62126;BME280;48112;53.282;6.150;2022-09-12T04:15:40;101663.78;;;14.18;85.29
62126;BME280;48112;53.282;6.150;2022-09-12T04:16:42;101659.06;;;14.15;85.71
62126;BME280;48112;53.282;6.150;2022-09-12T04:17:45;101660.09;;;14.11;86.15
62126;BME280;48112;53.282;6.150;2022-09-12T04:18:46;101652.63;;;14.08;86.34
62126;BME280;48112;53.282;6.150;2022-09-12T04:19:49;101661.91;;;14.07;86.12
62126;BME280;48112;53.282;6.150;2022-09-12T04:20:51;101654.09;;;14.05;86.54
62126;BME280;48112;53.282;6.150;2022-09-12T04:21:55;101654.91;;;14.06;86.16
62126;BME280;48112;53.282;6.150;2022-09-12T04:22:56;101655.59;;;14.03;86.65
62126;BME280;48112;53.282;6.150;2022-09-12T04:23:59;101655.59;;;14.03;86.53
62126;BME280;48112;53.282;6.150;2022-09-12T04:25:01;101657.16;;;14.04;86.18
62126;BME280;48112;53.282;6.150;2022-09-12T04:26:04;101656.81;;;14.05;86.33
62126;BME280;48112;53.282;6.150;2022-09-12T04:27:06;101664.19;;;14.05;86.66
62126;BME280;48112;53.282;6.150;2022-09-12T04:28:09;101657.25;;;14.07;86.95
62126;BME280;48112;53.282;6.150;2022-09-12T04:29:11;101659.19;;;14.07;86.36
62126;BME280;48112;53.282;6.150;2022-09-12T04:30:15;101667.66;;;14.05;86.21
62126;BME280;48112;53.282;6.150;2022-09-12T04:31:17;101666.44;;;14.03;86.62
62126;BME280;48112;53.282;6.150;2022-09-12T04:32:22;101661.72;;;14.00;86.91
62126;BME280;48112;53.282;6.150;2022-09-12T04:33:23;101658.66;;;14.01;86.57
62126;BME280;48112;53.282;6.150;2022-09-12T04:34:28;101662.06;;;13.98;86.99
62126;BME280;48112;53.282;6.150;2022-09-12T04:35:30;101656.63;;;13.98;86.28
62126;BME280;48112;53.282;6.150;2022-09-12T04:36:33;101658.06;;;13.96;86.28
62126;BME280;48112;53.282;6.150;2022-09-12T04:37:36;101664.66;;;13.95;86.77
62126;BME280;48112;53.282;6.150;2022-09-12T04:38:39;101663.50;;;13.96;86.33
62126;BME280;48112;53.282;6.150;2022-09-12T04:39:41;101663.75;;;13.91;85.69
62126;BME280;48112;53.282;6.150;2022-09-12T04:40:43;101667.25;;;13.91;85.99
62126;BME280;48112;53.282;6.150;2022-09-12T04:41:45;101674.59;;;13.91;85.72
62126;BME280;48112;53.282;6.150;2022-09-12T04:42:47;101662.16;;;13.90;86.17
62126;BME280;48112;53.282;6.150;2022-09-12T04:43:50;101666.38;;;13.87;85.84
62126;BME280;48112;53.282;6.150;2022-09-12T04:44:53;101671.47;;;13.89;85.90
62126;BME280;48112;53.282;6.150;2022-09-12T04:45:55;101661.38;;;13.89;85.87
62126;BME280;48112;53.282;6.150;2022-09-12T04:46:57;101658.22;;;13.87;86.03
62126;BME280;48112;53.282;6.150;2022-09-12T04:47:59;101673.72;;;13.87;86.27
62126;BME280;48112;53.282;6.150;2022-09-12T04:49:02;101666.38;;;13.87;85.86
62126;BME280;48112;53.282;6.150;2022-09-12T04:50:04;101668.28;;;13.87;85.51
62126;BME280;48112;53.282;6.150;2022-09-12T04:51:07;101673.38;;;13.88;84.51
62126;BME280;48112;53.282;6.150;2022-09-12T04:52:09;101669.50;;;13.89;84.80
62126;BME280;48112;53.282;6.150;2022-09-12T04:53:13;101662.97;;;13.90;84.82
62126;BME280;48112;53.282;6.150;2022-09-12T04:54:16;101672.00;;;13.94;85.30
62126;BME280;48112;53.282;6.150;2022-09-12T04:55:19;101666.22;;;13.96;86.25
62126;BME280;48112;53.282;6.150;2022-09-12T04:56:21;101667.03;;;13.96;85.40
62126;BME280;48112;53.282;6.150;2022-09-12T04:57:24;101658.53;;;13.98;85.35
62126;BME280;48112;53.282;6.150;2022-09-12T04:58:26;101670.97;;;13.99;85.81
62126;BME280;48112;53.282;6.150;2022-09-12T04:59:29;101667.13;;;14.00;85.44
62126;BME280;48112;53.282;6.150;2022-09-12T05:00:32;101659.41;;;14.02;86.13
62126;BME280;48112;53.282;6.150;2022-09-12T05:01:33;101660.22;;;14.02;85.98
62126;BME280;48112;53.282;6.150;2022-09-12T05:02:36;101661.47;;;14.05;85.91
62126;BME280;48112;53.282;6.150;2022-09-12T05:03:38;101667.31;;;14.07;86.49
62126;BME280;48112;53.282;6.150;2022-09-12T05:04:43;101661.91;;;14.07;86.10
62126;BME280;48112;53.282;6.150;2022-09-12T05:05:47;101668.94;;;14.08;85.71
62126;BME280;48112;53.282;6.150;2022-09-12T05:06:48;101667.31;;;14.07;85.02
62126;BME280;48112;53.282;6.150;2022-09-12T05:07:51;101667.78;;;14.09;85.28
62126;BME280;48112;53.282;6.150;2022-09-12T05:08:54;101663.50;;;14.08;85.00
62126;BME280;48112;53.282;6.150;2022-09-12T05:09:57;101677.50;;;14.10;85.60
62126;BME280;48112;53.282;6.150;2022-09-12T05:11:00;101676.38;;;14.11;85.33
62126;BME280;48112;53.282;6.150;2022-09-12T05:12:04;101671.72;;;14.11;85.56
62126;BME280;48112;53.282;6.150;2022-09-12T05:13:06;101673.66;;;14.11;85.17
62126;BME280;48112;53.282;6.150;2022-09-12T05:14:09;101662.81;;;14.11;85.25
62126;BME280;48112;53.282;6.150;2022-09-12T05:15:11;101676.84;;;14.13;85.26
62126;BME280;48112;53.282;6.150;2022-09-12T05:16:14;101671.84;;;14.15;85.42
62126;BME280;48112;53.282;6.150;2022-09-12T05:17:17;101672.97;;;14.14;85.29
62126;BME280;48112;53.282;6.150;2022-09-12T05:18:19;101662.56;;;14.16;85.38
62126;BME280;48112;53.282;6.150;2022-09-12T05:19:21;101667.66;;;14.17;86.18
62126;BME280;48112;53.282;6.150;2022-09-12T05:20:24;101656.00;;;14.17;86.18
62126;BME280;48112;53.282;6.150;2022-09-12T05:21:26;101669.22;;;14.18;85.40
62126;BME280;48112;53.282;6.150;2022-09-12T05:22:29;101666.16;;;14.20;85.88
62126;BME280;48112;53.282;6.150;2022-09-12T05:23:31;101661.97;;;14.22;86.45
62126;BME280;48112;53.282;6.150;2022-09-12T05:24:35;101660.03;;;14.23;86.20
62126;BME280;48112;53.282;6.150;2022-09-12T05:25:43;101651.56;;;14.24;86.50
62126;BME280;48112;53.282;6.150;2022-09-12T05:26:48;101652.38;;;14.25;86.41
62126;BME280;48112;53.282;6.150;2022-09-12T05:27:51;101655.56;;;14.27;86.17
62126;BME280;48112;53.282;6.150;2022-09-12T05:28:52;101658.25;;;14.27;86.41
62126;BME280;48112;53.282;6.150;2022-09-12T05:29:55;101654.06;;;14.29;86.43
62126;BME280;48112;53.282;6.150;2022-09-12T05:31:00;101657.56;;;14.30;86.01
62126;BME280;48112;53.282;6.150;2022-09-12T05:32:03;101646.38;;;14.31;86.01
62126;BME280;48112;53.282;6.150;2022-09-12T05:33:06;101661.16;;;14.34;86.51
62126;BME280;48112;53.282;6.150;2022-09-12T05:34:08;101651.91;;;14.35;86.37
62126;BME280;48112;53.282;6.150;2022-09-12T05:35:10;101652.66;;;14.35;86.33
62126;BME280;48112;53.282;6.150;2022-09-12T05:36:13;101650.41;;;14.37;86.32
62126;BME280;48112;53.282;6.150;2022-09-12T05:37:16;101656.63;;;14.38;86.90
62126;BME280;48112;53.282;6.150;2022-09-12T05:38:18;101651.19;;;14.38;86.34
62126;BME280;48112;53.282;6.150;2022-09-12T05:39:20;101644.97;;;14.37;86.69